sensor_id;sensor_type;location;lat;lon;timestamp;P1;durP1;ratioP1;P2;durP2;ratioP2
26953;SDS011;14508;50.924;11.600;2023-04-21T00:01:40;62.67;;;26.83;;
26953;SDS011;14508;50.924;11.600;2023-04-21T00:04:08;59.00;;;24.67;;
26953;SDS011;14508;50.924;11.600;2023-04-21T00:06:39;64.70;;;24.90;;
26953;SDS011;14508;50.924;11.600;2023-04-21T00:09:07;70.85;;;28.35;;
26953;SDS011;14508;50.924;11.600;2023-04-21T00:11:36;73.93;;;28.23;;
26953;SDS011;14508;50.924;11.600;2023-04-21T00:14:04;67.25;;;27.48;;
26953;SDS011;14508;50.924;11.600;2023-04-21T00:16:33;61.70;;;25.17;;
26953;SDS011;14508;50.924;11.600;2023-04-21T00:19:01;62.63;;;26.35;;
26953;SDS011;14508;50.924;11.600;2023-04-21T00:21:32;64.57;;;24.92;;
26953;SDS011;14508;50.924;11.600;2023-04-21T00:24:00;59.60;;;25.23;;
26953;SDS011;14508;50.924;11.600;2023-04-21T00:26:30;53.35;;;23.80;;
26953;SDS011;14508;50.924;11.600;2023-04-21T00:28:58;56.65;;;24.52;;
26953;SDS011;14508;50.924;11.600;2023-04-21T00:31:28;59.03;;;24.88;;
26953;SDS011;14508;50.924;11.600;2023-04-21T00:33:58;59.70;;;25.38;;
26953;SDS011;14508;50.924;11.600;2023-04-21T00:36:26;63.67;;;25.60;;
26953;SDS011;14508;50.924;11.600;2023-04-21T00:38:54;60.03;;;23.80;;
26953;SDS011;14508;50.924;11.600;2023-04-21T00:41:22;50.95;;;23.98;;
26953;SDS011;14508;50.924;11.600;2023-04-21T00:44:00;55.75;;;23.85;;
26953;SDS011;14508;50.924;11.600;2023-04-21T00:46:30;60.13;;;25.95;;
26953;SDS011;14508;50.924;11.600;2023-04-21T00:49:00;48.47;;;21.80;;
26953;SDS011;14508;50.924;11.600;2023-04-21T00:51:31;56.13;;;24.42;;
26953;SDS011;14508;50.924;11.600;2023-04-21T00:54:00;55.03;;;23.67;;
26953;SDS011;14508;50.924;11.600;2023-04-21T00:56:30;52.88;;;23.45;;
26953;SDS011;14508;50.924;11.600;2023-04-21T00:59:00;60.03;;;23.38;;
26953;SDS011;14508;50.924;11.600;2023-04-21T01:01:28;56.17;;;24.35;;
26953;SDS011;14508;50.924;11.600;2023-04-21T01:03:59;50.10;;;23.65;;
26953;SDS011;14508;50.924;11.600;2023-04-21T01:06:29;56.50;;;24.05;;
26953;SDS011;14508;50.924;11.600;2023-04-21T01:08:58;53.58;;;22.48;;
26953;SDS011;14508;50.924;11.600;2023-04-21T01:11:27;56.25;;;22.55;;
26953;SDS011;14508;50.924;11.600;2023-04-21T01:13:55;52.28;;;21.83;;
26953;SDS011;14508;50.924;11.600;2023-04-21T01:16:23;52.80;;;23.52;;
26953;SDS011;14508;50.924;11.600;2023-04-21T01:18:52;56.05;;;23.85;;
26953;SDS011;14508;50.924;11.600;2023-04-21T01:21:21;52.95;;;23.33;;
26953;SDS011;14508;50.924;11.600;2023-04-21T01:23:51;48.78;;;22.77;;
26953;SDS011;14508;50.924;11.600;2023-04-21T01:26:19;56.65;;;24.27;;
26953;SDS011;14508;50.924;11.600;2023-04-21T01:28:48;62.08;;;26.48;;
26953;SDS011;14508;50.924;11.600;2023-04-21T01:31:16;59.92;;;24.20;;
26953;SDS011;14508;50.924;11.600;2023-04-21T01:33:46;61.67;;;25.92;;
26953;SDS011;14508;50.924;11.600;2023-04-21T01:36:14;55.58;;;23.77;;
26953;SDS011;14508;50.924;11.600;2023-04-21T01:38:43;55.10;;;24.02;;
26953;SDS011;14508;50.924;11.600;2023-04-21T01:41:13;53.60;;;22.00;;
26953;SDS011;14508;50.924;11.600;2023-04-21T01:43:41;55.30;;;24.33;;
26953;SDS011;14508;50.924;11.600;2023-04-21T01:46:09;49.40;;;23.10;;
26953;SDS011;14508;50.924;11.600;2023-04-21T01:48:37;57.03;;;23.42;;
26953;SDS011;14508;50.924;11.600;2023-04-21T01:51:05;53.90;;;22.83;;
26953;SDS011;14508;50.924;11.600;2023-04-21T01:53:33;54.85;;;22.35;;
26953;SDS011;14508;50.924;11.600;2023-04-21T01:56:01;51.45;;;22.55;;
26953;SDS011;14508;50.924;11.600;2023-04-21T01:58:31;53.80;;;21.73;;
26953;SDS011;14508;50.924;11.600;2023-04-21T02:00:59;51.50;;;22.02;;
26953;SDS011;14508;50.924;11.600;2023-04-21T02:03:27;55.83;;;21.85;;
26953;SDS011;14508;50.924;11.600;2023-04-21T02:05:55;52.45;;;21.42;;
26953;SDS011;14508;50.924;11.600;2023-04-21T02:08:23;48.75;;;21.25;;
26953;SDS011;14508;50.924;11.600;2023-04-21T02:10:51;60.55;;;23.60;;
26953;SDS011;14508;50.924;11.600;2023-04-21T02:13:19;55.25;;;22.55;;
26953;SDS011;14508;50.924;11.600;2023-04-21T02:15:48;48.42;;;22.17;;
26953;SDS011;14508;50.924;11.600;2023-04-21T02:18:31;49.67;;;21.80;;
26953;SDS011;14508;50.924;11.600;2023-04-21T02:20:59;59.20;;;23.17;;
26953;SDS011;14508;50.924;11.600;2023-04-21T02:23:28;49.42;;;21.60;;
26953;SDS011;14508;50.924;11.600;2023-04-21T02:25:56;49.50;;;21.52;;
26953;SDS011;14508;50.924;11.600;2023-04-21T02:28:24;51.17;;;21.38;;
26953;SDS011;14508;50.924;11.600;2023-04-21T02:30:53;52.90;;;21.70;;
26953;SDS011;14508;50.924;11.600;2023-04-21T02:33:22;50.25;;;21.75;;
26953;SDS011;14508;50.924;11.600;2023-04-21T02:35:50;55.75;;;22.30;;
26953;SDS011;14508;50.924;11.600;2023-04-21T02:38:18;57.30;;;22.23;;
26953;SDS011;14508;50.924;11.600;2023-04-21T02:40:46;52.95;;;22.42;;
26953;SDS011;14508;50.924;11.600;2023-04-21T02:43:17;47.50;;;20.77;;
26953;SDS011;14508;50.924;11.600;2023-04-21T02:45:47;50.78;;;20.23;;
26953;SDS011;14508;50.924;11.600;2023-04-21T02:48:16;54.72;;;21.80;;
26953;SDS011;14508;50.924;11.600;2023-04-21T02:50:49;61.15;;;21.92;;
26953;SDS011;14508;50.924;11.600;2023-04-21T02:53:18;46.90;;;20.80;;
26953;SDS011;14508;50.924;11.600;2023-04-21T02:55:46;56.40;;;23.05;;
26953;SDS011;14508;50.924;11.600;2023-04-21T02:58:15;55.38;;;23.38;;
26953;SDS011;14508;50.924;11.600;2023-04-21T03:00:43;47.97;;;21.88;;
26953;SDS011;14508;50.924;11.600;2023-04-21T03:03:11;63.85;;;24.63;;
26953;SDS011;14508;50.924;11.600;2023-04-21T03:05:42;60.83;;;24.30;;
26953;SDS011;14508;50.924;11.600;2023-04-21T03:08:10;59.38;;;24.83;;
26953;SDS011;14508;50.924;11.600;2023-04-21T03:10:38;61.78;;;23.85;;
26953;SDS011;14508;50.924;11.600;2023-04-21T03:13:06;52.70;;;22.80;;
26953;SDS011;14508;50.924;11.600;2023-04-21T03:15:34;50.05;;;21.85;;
26953;SDS011;14508;50.924;11.600;2023-04-21T03:18:02;43.92;;;20.33;;
26953;SDS011;14508;50.924;11.600;2023-04-21T03:20:30;58.92;;;21.50;;
26953;SDS011;14508;50.924;11.600;2023-04-21T03:22:59;54.90;;;22.48;;
26953;SDS011;14508;50.924;11.600;2023-04-21T03:25:27;53.38;;;22.35;;
26953;SDS011;14508;50.924;11.600;2023-04-21T03:27:55;59.28;;;23.40;;
26953;SDS011;14508;50.924;11.600;2023-04-21T03:30:24;56.67;;;22.27;;
26953;SDS011;14508;50.924;11.600;2023-04-21T03:32:52;58.97;;;22.75;;
26953;SDS011;14508;50.924;11.600;2023-04-21T03:35:21;50.65;;;21.10;;
26953;SDS011;14508;50.924;11.600;2023-04-21T03:37:49;53.35;;;20.92;;
26953;SDS011;14508;50.924;11.600;2023-04-21T03:40:18;53.65;;;21.10;;
26953;SDS011;14508;50.924;11.600;2023-04-21T03:42:47;55.63;;;21.98;;
26953;SDS011;14508;50.924;11.600;2023-04-21T03:45:15;54.47;;;23.02;;
26953;SDS011;14508;50.924;11.600;2023-04-21T03:47:44;53.17;;;21.00;;
26953;SDS011;14508;50.924;11.600;2023-04-21T03:50:12;53.10;;;21.40;;
26953;SDS011;14508;50.924;11.600;2023-04-21T03:52:40;46.42;;;20.40;;
26953;SDS011;14508;50.924;11.600;2023-04-21T03:55:08;53.20;;;21.55;;
26953;SDS011;14508;50.924;11.600;2023-04-21T03:57:39;54.63;;;22.58;;
26953;SDS011;14508;50.924;11.600;2023-04-21T04:00:07;50.47;;;21.02;;
26953;SDS011;14508;50.924;11.600;2023-04-21T04:02:39;50.97;;;21.17;;
26953;SDS011;14508;50.924;11.600;2023-04-21T04:05:07;44.28;;;19.73;;
26953;SDS011;14508;50.924;11.600;2023-04-21T04:07:35;50.38;;;21.10;;
26953;SDS011;14508;50.924;11.600;2023-04-21T04:10:03;44.95;;;20.55;;
26953;SDS011;14508;50.924;11.600;2023-04-21T04:12:32;44.15;;;20.40;;
26953;SDS011;14508;50.924;11.600;2023-04-21T04:15:01;44.72;;;19.52;;
26953;SDS011;14508;50.924;11.600;2023-04-21T04:17:29;50.13;;;19.45;;
26953;SDS011;14508;50.924;11.600;2023-04-21T04:19:57;46.95;;;19.55;;
26953;SDS011;14508;50.924;11.600;2023-04-21T04:22:25;48.17;;;21.25;;
26953;SDS011;14508;50.924;11.600;2023-04-21T04:24:53;52.25;;;21.05;;
26953;SDS011;14508;50.924;11.600;2023-04-21T04:27:22;44.25;;;20.38;;
26953;SDS011;14508;50.924;11.600;2023-04-21T04:29:50;55.08;;;19.58;;
26953;SDS011;14508;50.924;11.600;2023-04-21T04:32:19;45.05;;;18.70;;
26953;SDS011;14508;50.924;11.600;2023-04-21T04:34:47;39.65;;;18.15;;
26953;SDS011;14508;50.924;11.600;2023-04-21T04:37:17;56.95;;;19.00;;
26953;SDS011;14508;50.924;11.600;2023-04-21T04:39:47;46.75;;;19.88;;
26953;SDS011;14508;50.924;11.600;2023-04-21T04:42:15;53.28;;;20.75;;
26953;SDS011;14508;50.924;11.600;2023-04-21T04:44:45;50.72;;;21.30;;
26953;SDS011;14508;50.924;11.600;2023-04-21T04:47:13;48.38;;;19.17;;
26953;SDS011;14508;50.924;11.600;2023-04-21T04:49:43;55.15;;;20.45;;
26953;SDS011;14508;50.924;11.600;2023-04-21T04:52:10;56.72;;;21.92;;
26953;SDS011;14508;50.924;11.600;2023-04-21T04:54:38;54.13;;;19.77;;
26953;SDS011;14508;50.924;11.600;2023-04-21T04:57:06;44.30;;;17.10;;
26953;SDS011;14508;50.924;11.600;2023-04-21T04:59:34;44.45;;;17.13;;
26953;SDS011;14508;50.924;11.600;2023-04-21T05:02:02;45.22;;;18.10;;
26953;SDS011;14508;50.924;11.600;2023-04-21T05:04:35;40.33;;;19.10;;
26953;SDS011;14508;50.924;11.600;2023-04-21T05:07:04;45.35;;;18.38;;
26953;SDS011;14508;50.924;11.600;2023-04-21T05:09:33;42.35;;;18.40;;
26953;SDS011;14508;50.924;11.600;2023-04-21T05:12:01;43.05;;;18.15;;
26953;SDS011;14508;50.924;11.600;2023-04-21T05:14:30;42.28;;;19.10;;
26953;SDS011;14508;50.924;11.600;2023-04-21T05:16:58;42.70;;;18.55;;
26953;SDS011;14508;50.924;11.600;2023-04-21T05:19:26;45.85;;;18.98;;
26953;SDS011;14508;50.924;11.600;2023-04-21T05:21:57;61.10;;;20.30;;
26953;SDS011;14508;50.924;11.600;2023-04-21T05:24:27;44.92;;;19.77;;
26953;SDS011;14508;50.924;11.600;2023-04-21T05:26:55;52.47;;;20.85;;
26953;SDS011;14508;50.924;11.600;2023-04-21T05:29:23;58.00;;;21.40;;
26953;SDS011;14508;50.924;11.600;2023-04-21T05:31:51;111.28;;;38.10;;
26953;SDS011;14508;50.924;11.600;2023-04-21T05:34:19;92.50;;;34.42;;
26953;SDS011;14508;50.924;11.600;2023-04-21T05:36:47;67.88;;;27.63;;
26953;SDS011;14508;50.924;11.600;2023-04-21T05:39:17;59.80;;;24.60;;
26953;SDS011;14508;50.924;11.600;2023-04-21T05:41:47;56.85;;;23.70;;
26953;SDS011;14508;50.924;11.600;2023-04-21T05:44:15;56.25;;;23.13;;
26953;SDS011;14508;50.924;11.600;2023-04-21T05:46:44;48.78;;;21.08;;
26953;SDS011;14508;50.924;11.600;2023-04-21T05:49:12;53.65;;;22.70;;
26953;SDS011;14508;50.924;11.600;2023-04-21T05:51:40;48.78;;;21.42;;
26953;SDS011;14508;50.924;11.600;2023-04-21T05:54:08;54.08;;;23.00;;
26953;SDS011;14508;50.924;11.600;2023-04-21T05:56:36;53.05;;;22.60;;
26953;SDS011;14508;50.924;11.600;2023-04-21T05:59:05;56.22;;;21.85;;
26953;SDS011;14508;50.924;11.600;2023-04-21T06:01:33;45.90;;;20.45;;
26953;SDS011;14508;50.924;11.600;2023-04-21T06:04:02;50.75;;;21.95;;
26953;SDS011;14508;50.924;11.600;2023-04-21T06:06:30;49.50;;;22.13;;
26953;SDS011;14508;50.924;11.600;2023-04-21T06:08:58;47.40;;;22.50;;
26953;SDS011;14508;50.924;11.600;2023-04-21T06:11:26;54.90;;;23.45;;
26953;SDS011;14508;50.924;11.600;2023-04-21T06:13:54;59.47;;;22.67;;
26953;SDS011;14508;50.924;11.600;2023-04-21T06:16:26;47.95;;;21.13;;
26953;SDS011;14508;50.924;11.600;2023-04-21T06:18:57;46.97;;;20.83;;
26953;SDS011;14508;50.924;11.600;2023-04-21T06:21:25;42.15;;;20.17;;
26953;SDS011;14508;50.924;11.600;2023-04-21T06:23:53;42.53;;;18.85;;
26953;SDS011;14508;50.924;11.600;2023-04-21T06:26:21;41.45;;;19.90;;
26953;SDS011;14508;50.924;11.600;2023-04-21T06:28:49;52.90;;;23.23;;
26953;SDS011;14508;50.924;11.600;2023-04-21T06:31:17;54.17;;;20.20;;
26953;SDS011;14508;50.924;11.600;2023-04-21T06:33:47;49.30;;;20.13;;
26953;SDS011;14508;50.924;11.600;2023-04-21T06:36:15;46.97;;;20.95;;
26953;SDS011;14508;50.924;11.600;2023-04-21T06:38:43;35.83;;;18.25;;
26953;SDS011;14508;50.924;11.600;2023-04-21T06:41:11;39.30;;;19.25;;
26953;SDS011;14508;50.924;11.600;2023-04-21T06:43:39;41.83;;;18.80;;
26953;SDS011;14508;50.924;11.600;2023-04-21T06:46:07;51.80;;;22.00;;
26953;SDS011;14508;50.924;11.600;2023-04-21T06:48:37;36.70;;;17.38;;
26953;SDS011;14508;50.924;11.600;2023-04-21T06:51:09;34.75;;;17.15;;
26953;SDS011;14508;50.924;11.600;2023-04-21T06:53:38;36.90;;;17.02;;
26953;SDS011;14508;50.924;11.600;2023-04-21T06:56:06;44.33;;;17.10;;
26953;SDS011;14508;50.924;11.600;2023-04-21T06:58:34;46.35;;;17.52;;
26953;SDS011;14508;50.924;11.600;2023-04-21T07:01:03;41.75;;;17.45;;
26953;SDS011;14508;50.924;11.600;2023-04-21T07:03:31;44.58;;;18.13;;
26953;SDS011;14508;50.924;11.600;2023-04-21T07:05:59;40.97;;;15.93;;
26953;SDS011;14508;50.924;11.600;2023-04-21T07:08:29;36.58;;;16.35;;
26953;SDS011;14508;50.924;11.600;2023-04-21T07:10:57;35.50;;;14.57;;
26953;SDS011;14508;50.924;11.600;2023-04-21T07:13:25;37.80;;;16.67;;
26953;SDS011;14508;50.924;11.600;2023-04-21T07:15:53;32.42;;;15.98;;
26953;SDS011;14508;50.924;11.600;2023-04-21T07:18:21;32.47;;;15.23;;
26953;SDS011;14508;50.924;11.600;2023-04-21T07:20:49;38.22;;;14.95;;
26953;SDS011;14508;50.924;11.600;2023-04-21T07:23:18;37.53;;;14.07;;
26953;SDS011;14508;50.924;11.600;2023-04-21T07:25:47;29.13;;;12.32;;
26953;SDS011;14508;50.924;11.600;2023-04-21T07:28:17;28.88;;;12.98;;
26953;SDS011;14508;50.924;11.600;2023-04-21T07:30:45;33.20;;;13.95;;
26953;SDS011;14508;50.924;11.600;2023-04-21T07:33:13;25.92;;;13.30;;
26953;SDS011;14508;50.924;11.600;2023-04-21T07:35:41;30.45;;;13.30;;
26953;SDS011;14508;50.924;11.600;2023-04-21T07:38:10;23.60;;;12.30;;
26953;SDS011;14508;50.924;11.600;2023-04-21T07:40:38;34.35;;;11.48;;
26953;SDS011;14508;50.924;11.600;2023-04-21T07:43:07;32.10;;;12.70;;
26953;SDS011;14508;50.924;11.600;2023-04-21T07:45:38;18.33;;;9.40;;
26953;SDS011;14508;50.924;11.600;2023-04-21T07:48:06;17.08;;;7.45;;
26953;SDS011;14508;50.924;11.600;2023-04-21T07:50:35;20.50;;;7.15;;
26953;SDS011;14508;50.924;11.600;2023-04-21T07:53:03;21.00;;;6.70;;
26953;SDS011;14508;50.924;11.600;2023-04-21T07:55:32;13.40;;;6.47;;
26953;SDS011;14508;50.924;11.600;2023-04-21T07:58:03;12.45;;;6.35;;
26953;SDS011;14508;50.924;11.600;2023-04-21T08:00:34;18.73;;;6.80;;
26953;SDS011;14508;50.924;11.600;2023-04-21T08:03:04;16.98;;;5.95;;
26953;SDS011;14508;50.924;11.600;2023-04-21T08:05:32;15.98;;;7.05;;
26953;SDS011;14508;50.924;11.600;2023-04-21T08:08:06;19.25;;;6.45;;
26953;SDS011;14508;50.924;11.600;2023-04-21T08:10:37;10.80;;;5.63;;
26953;SDS011;14508;50.924;11.600;2023-04-21T08:13:06;14.00;;;6.40;;
26953;SDS011;14508;50.924;11.600;2023-04-21T08:15:36;15.10;;;6.25;;
26953;SDS011;14508;50.924;11.600;2023-04-21T08:18:05;16.48;;;6.78;;
26953;SDS011;14508;50.924;11.600;2023-04-21T08:20:34;16.33;;;5.53;;
26953;SDS011;14508;50.924;11.600;2023-04-21T08:26:05;13.82;;;6.65;;
26953;SDS011;14508;50.924;11.600;2023-04-21T08:28:34;13.23;;;6.43;;
26953;SDS011;14508;50.924;11.600;2023-04-21T08:31:05;17.02;;;5.68;;
26953;SDS011;14508;50.924;11.600;2023-04-21T08:33:34;15.20;;;6.18;;
26953;SDS011;14508;50.924;11.600;2023-04-21T08:36:17;14.60;;;6.93;;
26953;SDS011;14508;50.924;11.600;2023-04-21T08:38:54;27.70;;;6.80;;
26953;SDS011;14508;50.924;11.600;2023-04-21T08:41:23;15.45;;;5.72;;
26953;SDS011;14508;50.924;11.600;2023-04-21T08:43:51;15.68;;;6.22;;
26953;SDS011;14508;50.924;11.600;2023-04-21T08:46:21;11.77;;;6.30;;
26953;SDS011;14508;50.924;11.600;2023-04-21T08:48:50;17.90;;;6.20;;
26953;SDS011;14508;50.924;11.600;2023-04-21T08:51:21;15.18;;;6.15;;
26953;SDS011;14508;50.924;11.600;2023-04-21T08:53:50;13.80;;;6.32;;
26953;SDS011;14508;50.924;11.600;2023-04-21T08:56:18;19.42;;;7.22;;
26953;SDS011;14508;50.924;11.600;2023-04-21T08:58:46;19.23;;;6.00;;
26953;SDS011;14508;50.924;11.600;2023-04-21T09:01:14;15.05;;;6.68;;
26953;SDS011;14508;50.924;11.600;2023-04-21T09:03:44;17.88;;;5.80;;
26953;SDS011;14508;50.924;11.600;2023-04-21T09:06:14;13.20;;;6.20;;
26953;SDS011;14508;50.924;11.600;2023-04-21T09:08:45;19.08;;;6.00;;
26953;SDS011;14508;50.924;11.600;2023-04-21T09:11:20;16.30;;;6.15;;
26953;SDS011;14508;50.924;11.600;2023-04-21T09:13:49;12.00;;;5.85;;
26953;SDS011;14508;50.924;11.600;2023-04-21T09:16:18;15.20;;;6.15;;
26953;SDS011;14508;50.924;11.600;2023-04-21T09:18:49;12.60;;;5.82;;
26953;SDS011;14508;50.924;11.600;2023-04-21T09:21:18;11.95;;;6.20;;
26953;SDS011;14508;50.924;11.600;2023-04-21T09:23:48;12.57;;;6.40;;
26953;SDS011;14508;50.924;11.600;2023-04-21T09:26:18;8.45;;;5.38;;
26953;SDS011;14508;50.924;11.600;2023-04-21T09:28:48;23.92;;;5.97;;
26953;SDS011;14508;50.924;11.600;2023-04-21T09:31:17;13.48;;;5.80;;
26953;SDS011;14508;50.924;11.600;2023-04-21T09:33:46;17.63;;;6.15;;
26953;SDS011;14508;50.924;11.600;2023-04-21T09:36:19;13.23;;;5.90;;
26953;SDS011;14508;50.924;11.600;2023-04-21T09:38:49;16.85;;;6.65;;
26953;SDS011;14508;50.924;11.600;2023-04-21T09:41:42;11.32;;;5.82;;
26953;SDS011;14508;50.924;11.600;2023-04-21T09:44:10;14.85;;;5.30;;
26953;SDS011;14508;50.924;11.600;2023-04-21T09:46:38;16.30;;;5.28;;
26953;SDS011;14508;50.924;11.600;2023-04-21T09:49:10;14.38;;;4.85;;
26953;SDS011;14508;50.924;11.600;2023-04-21T09:51:41;17.60;;;5.43;;
26953;SDS011;14508;50.924;11.600;2023-04-21T09:54:30;12.52;;;5.30;;
26953;SDS011;14508;50.924;11.600;2023-04-21T09:57:00;9.98;;;4.85;;
26953;SDS011;14508;50.924;11.600;2023-04-21T09:59:31;17.38;;;5.00;;
26953;SDS011;14508;50.924;11.600;2023-04-21T10:02:03;18.35;;;5.55;;
26953;SDS011;14508;50.924;11.600;2023-04-21T10:04:33;11.25;;;5.75;;
26953;SDS011;14508;50.924;11.600;2023-04-21T10:07:05;12.02;;;5.38;;
26953;SDS011;14508;50.924;11.600;2023-04-21T10:09:35;10.57;;;4.72;;
26953;SDS011;14508;50.924;11.600;2023-04-21T10:12:06;7.63;;;4.47;;
26953;SDS011;14508;50.924;11.600;2023-04-21T10:14:36;11.48;;;4.60;;
26953;SDS011;14508;50.924;11.600;2023-04-21T10:17:04;11.15;;;4.80;;
26953;SDS011;14508;50.924;11.600;2023-04-21T10:19:33;8.90;;;4.70;;
26953;SDS011;14508;50.924;11.600;2023-04-21T10:22:06;16.80;;;4.53;;
26953;SDS011;14508;50.924;11.600;2023-04-21T10:24:36;12.10;;;5.72;;
26953;SDS011;14508;50.924;11.600;2023-04-21T10:27:08;9.43;;;4.50;;
26953;SDS011;14508;50.924;11.600;2023-04-21T10:29:37;8.38;;;4.60;;
26953;SDS011;14508;50.924;11.600;2023-04-21T10:32:30;12.57;;;4.80;;
26953;SDS011;14508;50.924;11.600;2023-04-21T10:35:07;7.90;;;4.30;;
26953;SDS011;14508;50.924;11.600;2023-04-21T10:37:37;12.48;;;5.00;;
26953;SDS011;14508;50.924;11.600;2023-04-21T10:40:13;7.80;;;4.32;;
26953;SDS011;14508;50.924;11.600;2023-04-21T10:43:19;10.77;;;4.32;;
26953;SDS011;14508;50.924;11.600;2023-04-21T10:46:30;8.30;;;3.90;;
26953;SDS011;14508;50.924;11.600;2023-04-21T10:49:04;4.68;;;3.72;;
26953;SDS011;14508;50.924;11.600;2023-04-21T10:51:34;6.38;;;3.97;;
26953;SDS011;14508;50.924;11.600;2023-04-21T10:54:37;10.55;;;3.83;;
26953;SDS011;14508;50.924;11.600;2023-04-21T10:57:09;6.45;;;4.03;;
26953;SDS011;14508;50.924;11.600;2023-04-21T10:59:38;5.70;;;3.63;;
26953;SDS011;14508;50.924;11.600;2023-04-21T11:02:07;7.40;;;4.65;;
26953;SDS011;14508;50.924;11.600;2023-04-21T11:04:37;7.43;;;3.80;;
26953;SDS011;14508;50.924;11.600;2023-04-21T11:07:11;7.00;;;4.18;;
26953;SDS011;14508;50.924;11.600;2023-04-21T11:09:41;6.07;;;3.72;;
26953;SDS011;14508;50.924;11.600;2023-04-21T11:12:11;7.43;;;4.18;;
26953;SDS011;14508;50.924;11.600;2023-04-21T11:14:40;7.45;;;4.45;;
26953;SDS011;14508;50.924;11.600;2023-04-21T11:17:10;6.57;;;3.83;;
26953;SDS011;14508;50.924;11.600;2023-04-21T11:19:39;9.68;;;4.03;;
26953;SDS011;14508;50.924;11.600;2023-04-21T11:22:07;6.43;;;3.60;;
26953;SDS011;14508;50.924;11.600;2023-04-21T11:24:35;11.93;;;4.43;;
26953;SDS011;14508;50.924;11.600;2023-04-21T11:27:08;7.72;;;4.22;;
26953;SDS011;14508;50.924;11.600;2023-04-21T11:29:37;10.73;;;4.22;;
26953;SDS011;14508;50.924;11.600;2023-04-21T11:32:06;7.75;;;4.07;;
26953;SDS011;14508;50.924;11.600;2023-04-21T11:34:35;7.57;;;4.40;;
26953;SDS011;14508;50.924;11.600;2023-04-21T11:37:05;6.45;;;3.75;;
26953;SDS011;14508;50.924;11.600;2023-04-21T11:39:34;8.07;;;3.80;;
26953;SDS011;14508;50.924;11.600;2023-04-21T11:42:02;10.88;;;4.22;;
26953;SDS011;14508;50.924;11.600;2023-04-21T11:44:32;8.20;;;4.13;;
26953;SDS011;14508;50.924;11.600;2023-04-21T11:47:10;6.80;;;4.10;;
26953;SDS011;14508;50.924;11.600;2023-04-21T11:49:43;5.97;;;3.70;;
26953;SDS011;14508;50.924;11.600;2023-04-21T11:52:25;6.18;;;3.97;;
26953;SDS011;14508;50.924;11.600;2023-04-21T11:54:55;7.35;;;4.15;;
26953;SDS011;14508;50.924;11.600;2023-04-21T11:57:25;10.20;;;4.10;;
26953;SDS011;14508;50.924;11.600;2023-04-21T11:59:57;9.45;;;4.90;;
26953;SDS011;14508;50.924;11.600;2023-04-21T12:02:26;7.95;;;4.05;;
26953;SDS011;14508;50.924;11.600;2023-04-21T12:04:56;10.20;;;3.80;;
26953;SDS011;14508;50.924;11.600;2023-04-21T12:07:26;8.20;;;4.18;;
26953;SDS011;14508;50.924;11.600;2023-04-21T12:09:56;8.48;;;3.78;;
26953;SDS011;14508;50.924;11.600;2023-04-21T12:12:24;5.68;;;3.47;;
26953;SDS011;14508;50.924;11.600;2023-04-21T12:14:54;6.18;;;3.78;;
26953;SDS011;14508;50.924;11.600;2023-04-21T12:17:22;5.07;;;3.58;;
26953;SDS011;14508;50.924;11.600;2023-04-21T12:19:50;13.93;;;3.65;;
26953;SDS011;14508;50.924;11.600;2023-04-21T12:22:18;5.93;;;3.05;;
26953;SDS011;14508;50.924;11.600;2023-04-21T12:24:48;7.53;;;3.70;;
26953;SDS011;14508;50.924;11.600;2023-04-21T12:27:16;6.15;;;3.20;;
26953;SDS011;14508;50.924;11.600;2023-04-21T12:29:45;6.55;;;3.67;;
26953;SDS011;14508;50.924;11.600;2023-04-21T12:32:14;6.10;;;3.28;;
26953;SDS011;14508;50.924;11.600;2023-04-21T12:34:42;11.65;;;3.72;;
26953;SDS011;14508;50.924;11.600;2023-04-21T12:37:10;4.50;;;3.22;;
26953;SDS011;14508;50.924;11.600;2023-04-21T12:39:39;5.78;;;3.35;;
26953;SDS011;14508;50.924;11.600;2023-04-21T12:42:07;10.77;;;3.38;;
26953;SDS011;14508;50.924;11.600;2023-04-21T12:44:35;5.07;;;3.20;;
26953;SDS011;14508;50.924;11.600;2023-04-21T12:47:03;6.15;;;3.28;;
26953;SDS011;14508;50.924;11.600;2023-04-21T12:49:32;8.65;;;3.28;;
26953;SDS011;14508;50.924;11.600;2023-04-21T12:52:00;8.30;;;3.53;;
26953;SDS011;14508;50.924;11.600;2023-04-21T12:54:30;6.03;;;3.00;;
26953;SDS011;14508;50.924;11.600;2023-04-21T12:56:59;3.67;;;2.88;;
26953;SDS011;14508;50.924;11.600;2023-04-21T12:59:27;5.78;;;3.20;;
26953;SDS011;14508;50.924;11.600;2023-04-21T13:01:55;8.98;;;2.90;;
26953;SDS011;14508;50.924;11.600;2023-04-21T13:04:23;7.72;;;3.22;;
26953;SDS011;14508;50.924;11.600;2023-04-21T13:06:53;12.88;;;4.32;;
26953;SDS011;14508;50.924;11.600;2023-04-21T13:09:21;4.00;;;2.97;;
26953;SDS011;14508;50.924;11.600;2023-04-21T13:11:49;5.38;;;3.60;;
26953;SDS011;14508;50.924;11.600;2023-04-21T13:14:17;7.88;;;3.35;;
26953;SDS011;14508;50.924;11.600;2023-04-21T13:16:45;5.25;;;3.05;;
26953;SDS011;14508;50.924;11.600;2023-04-21T13:19:13;5.05;;;2.75;;
26953;SDS011;14508;50.924;11.600;2023-04-21T13:21:41;7.22;;;3.65;;
26953;SDS011;14508;50.924;11.600;2023-04-21T13:24:10;12.45;;;3.92;;
26953;SDS011;14508;50.924;11.600;2023-04-21T13:26:40;8.15;;;3.33;;
26953;SDS011;14508;50.924;11.600;2023-04-21T13:29:08;6.72;;;3.17;;
26953;SDS011;14508;50.924;11.600;2023-04-21T13:31:36;5.55;;;2.97;;
26953;SDS011;14508;50.924;11.600;2023-04-21T13:34:04;6.88;;;3.58;;
26953;SDS011;14508;50.924;11.600;2023-04-21T13:36:32;4.95;;;3.55;;
26953;SDS011;14508;50.924;11.600;2023-04-21T13:39:00;5.75;;;2.90;;
26953;SDS011;14508;50.924;11.600;2023-04-21T13:41:32;7.90;;;3.08;;
26953;SDS011;14508;50.924;11.600;2023-04-21T13:44:00;6.57;;;3.58;;
26953;SDS011;14508;50.924;11.600;2023-04-21T13:46:28;7.22;;;3.22;;
26953;SDS011;14508;50.924;11.600;2023-04-21T13:48:57;7.43;;;3.67;;
26953;SDS011;14508;50.924;11.600;2023-04-21T13:51:25;5.55;;;2.97;;
26953;SDS011;14508;50.924;11.600;2023-04-21T13:53:55;10.70;;;3.72;;
26953;SDS011;14508;50.924;11.600;2023-04-21T13:56:23;10.98;;;3.47;;
26953;SDS011;14508;50.924;11.600;2023-04-21T13:58:52;5.03;;;3.30;;
26953;SDS011;14508;50.924;11.600;2023-04-21T14:01:21;6.55;;;3.30;;
26953;SDS011;14508;50.924;11.600;2023-04-21T14:03:49;9.75;;;3.45;;
26953;SDS011;14508;50.924;11.600;2023-04-21T14:06:17;5.60;;;3.17;;
26953;SDS011;14508;50.924;11.600;2023-04-21T14:08:45;11.07;;;4.20;;
26953;SDS011;14508;50.924;11.600;2023-04-21T14:11:13;4.97;;;3.58;;
26953;SDS011;14508;50.924;11.600;2023-04-21T14:13:41;4.60;;;3.05;;
26953;SDS011;14508;50.924;11.600;2023-04-21T14:16:30;7.97;;;3.45;;
26953;SDS011;14508;50.924;11.600;2023-04-21T14:18:59;8.10;;;3.17;;
26953;SDS011;14508;50.924;11.600;2023-04-21T14:21:27;6.00;;;3.42;;
26953;SDS011;14508;50.924;11.600;2023-04-21T14:23:54;11.57;;;3.40;;
26953;SDS011;14508;50.924;11.600;2023-04-21T14:26:22;6.85;;;3.67;;
26953;SDS011;14508;50.924;11.600;2023-04-21T14:28:50;5.43;;;3.00;;
26953;SDS011;14508;50.924;11.600;2023-04-21T14:31:18;5.65;;;3.13;;
26953;SDS011;14508;50.924;11.600;2023-04-21T14:33:49;9.73;;;3.55;;
26953;SDS011;14508;50.924;11.600;2023-04-21T14:36:17;4.80;;;3.47;;